createdAt,value
2019-03-29T00:00:02.393Z,5.5
2019-03-29T00:05:02.854Z,5.3
2019-03-29T00:10:03.276Z,5.3
2019-03-29T00:15:02.602Z,5.0
2019-03-29T00:20:06.035Z,5.0
2019-03-29T00:25:02.797Z,5.0
2019-03-29T00:30:03.243Z,5.0
2019-03-29T00:35:02.650Z,5.0
2019-03-29T00:40:03.087Z,4.8
2019-03-29T00:45:02.420Z,4.8
2019-03-29T00:50:02.846Z,4.5
2019-03-29T00:55:03.206Z,4.5
2019-03-29T01:00:02.602Z,4.8
2019-03-29T01:05:03.257Z,4.8
2019-03-29T01:10:02.780Z,4.8
2019-03-29T01:15:03.132Z,4.8
2019-03-29T01:20:02.531Z,4.8
2019-03-29T01:25:02.898Z,4.8
2019-03-29T01:30:03.324Z,4.8
2019-03-29T01:35:02.734Z,4.8
2019-03-29T01:40:03.185Z,4.8
2019-03-29T01:45:02.517Z,4.5
2019-03-29T01:50:02.934Z,4.5
2019-03-29T01:55:03.285Z,4.5
2019-03-29T02:00:02.695Z,4.5
2019-03-29T02:05:03.048Z,4.5
2019-03-29T02:10:02.465Z,4.5
2019-03-29T02:15:02.803Z,4.3
2019-03-29T02:20:03.148Z,4.0
2019-03-29T02:25:02.563Z,4.0
2019-03-29T02:30:04.224Z,4.0
2019-03-29T02:35:03.047Z,4.0
2019-03-29T02:40:02.491Z,4.0
2019-03-29T02:45:03.588Z,4.0
2019-03-29T02:50:03.262Z,3.7
2019-03-29T02:55:02.684Z,3.7
2019-03-29T03:00:03.108Z,3.7
2019-03-29T03:05:02.586Z,3.7
2019-03-29T03:10:03.072Z,3.5
2019-03-29T03:15:02.440Z,3.7
2019-03-29T03:20:02.839Z,3.7
2019-03-29T03:25:03.185Z,3.7
2019-03-29T03:30:02.555Z,3.7
2019-03-29T03:35:02.944Z,3.5
2019-03-29T03:40:02.394Z,3.5
2019-03-29T03:45:02.798Z,3.2
2019-03-29T03:50:03.141Z,3.2
2019-03-29T03:55:02.556Z,3.2
2019-03-29T04:00:03.006Z,3.0
2019-03-29T04:05:02.627Z,3.0
2019-03-29T04:10:03.067Z,3.0
2019-03-29T04:15:02.500Z,3.2
2019-03-29T04:20:02.936Z,3.2
2019-03-29T04:25:03.271Z,3.0
2019-03-29T04:30:02.687Z,3.0
2019-03-29T04:35:03.042Z,3.2
2019-03-29T04:40:07.731Z,3.2
2019-03-29T04:45:03.277Z,3.0
2019-03-29T04:50:02.609Z,3.2
2019-03-29T04:55:02.959Z,3.0
2019-03-29T05:00:03.283Z,2.9
2019-03-29T05:05:02.720Z,2.9
2019-03-29T05:10:03.166Z,2.7
2019-03-29T05:15:02.914Z,2.7
2019-03-29T05:20:03.336Z,2.7
2019-03-29T05:25:02.772Z,2.7
2019-03-29T05:30:02.789Z,2.5
2019-03-29T05:35:03.125Z,2.7
2019-03-29T05:40:02.549Z,2.7
2019-03-29T05:45:02.887Z,2.9
2019-03-29T05:50:03.249Z,2.7
2019-03-29T05:55:02.657Z,3.0
2019-03-29T06:00:03.096Z,3.2
2019-03-29T06:05:02.510Z,3.0
2019-03-29T06:10:02.977Z,3.2
2019-03-29T06:15:02.378Z,3.5
2019-03-29T06:20:02.824Z,3.7
2019-03-29T06:25:03.266Z,3.7
2019-03-29T06:30:02.606Z,4.0
2019-03-29T06:35:03.025Z,4.3
2019-03-29T06:40:02.680Z,4.5
2019-03-29T06:45:03.172Z,5.0
2019-03-29T06:50:02.625Z,5.3
2019-03-29T06:55:03.058Z,5.3
2019-03-29T07:00:01.867Z,5.5
2019-03-29T07:05:03.230Z,5.8
2019-03-29T07:10:02.785Z,5.9
2019-03-29T07:15:03.191Z,6.0
2019-03-29T07:20:02.747Z,6.4
2019-03-29T07:25:03.153Z,6.6
2019-03-29T07:30:02.985Z,7.1
2019-03-29T07:35:02.444Z,7.5
2019-03-29T07:40:02.879Z,8.0
2019-03-29T07:45:03.214Z,8.3
2019-03-29T07:50:02.639Z,9.0
2019-03-29T07:55:03.051Z,9.3
2019-03-29T08:00:02.507Z,9.5
2019-03-29T08:05:02.939Z,10.0
2019-03-29T08:10:04.059Z,10.3
2019-03-29T08:15:02.702Z,10.8
2019-03-29T08:20:36.297Z,11.1
2019-03-29T08:25:02.474Z,11.6
2019-03-29T08:30:02.812Z,12.0
2019-03-29T08:35:03.221Z,11.8
2019-03-29T08:40:02.670Z,12.3
2019-03-29T08:45:03.088Z,12.8
2019-03-29T08:50:02.639Z,12.8
2019-03-29T08:55:03.049Z,13.6
2019-03-29T09:00:02.494Z,14.0
2019-03-29T09:05:02.934Z,14.5
2019-03-29T09:10:02.442Z,14.6
2019-03-29T09:15:04.087Z,15.3
2019-03-29T09:20:02.570Z,15.3
2019-03-29T09:25:02.943Z,15.8
2019-03-29T09:30:05.110Z,15.1
2019-03-29T09:35:02.931Z,15.8
2019-03-29T09:40:02.431Z,15.5
2019-03-29T09:45:03.026Z,16.2
2019-03-29T09:50:02.418Z,16.0
2019-03-29T09:55:02.871Z,16.3
2019-03-29T10:00:17.369Z,17.3
2019-03-29T10:05:03.319Z,15.5
2019-03-29T10:10:02.758Z,16.7
2019-03-29T10:15:03.219Z,16.7
2019-03-29T10:20:02.592Z,16.2
2019-03-29T10:25:17.942Z,16.2
2019-03-29T10:30:03.302Z,16.3
2019-03-29T10:35:02.731Z,16.7
2019-03-29T10:40:03.371Z,16.2
2019-03-29T10:45:03.007Z,16.2
2019-03-29T10:50:02.493Z,16.2
2019-03-29T10:55:03.066Z,17.0
2019-03-29T11:00:02.452Z,17.5
2019-03-29T11:05:02.922Z,17.3
2019-03-29T11:10:02.326Z,17.1
2019-03-29T11:15:06.343Z,17.0
2019-03-29T11:20:03.136Z,17.8
2019-03-29T11:25:02.503Z,17.7
2019-03-29T11:30:02.889Z,17.2
2019-03-29T11:35:03.335Z,17.7
2019-03-29T11:40:02.807Z,17.5
2019-03-29T11:45:03.206Z,18.1
2019-03-29T11:50:02.570Z,17.8
2019-03-29T11:55:02.966Z,18.7
2019-03-29T12:00:02.322Z,19.2
2019-03-29T12:05:02.670Z,20.0
2019-03-29T12:10:03.112Z,19.1
2019-03-29T12:15:02.525Z,18.5
2019-03-29T12:20:02.866Z,19.5
2019-03-29T12:25:03.205Z,20.7
2019-03-29T12:30:02.618Z,20.8
2019-03-29T12:35:02.967Z,18.7
2019-03-29T12:40:02.387Z,20.8
2019-03-29T12:45:02.734Z,20.2
2019-03-29T12:50:03.175Z,19.1
2019-03-29T12:55:02.575Z,19.0
2019-03-29T13:00:02.924Z,18.7
2019-03-29T13:05:03.269Z,20.1
2019-03-29T13:10:02.677Z,20.7
2019-03-29T13:15:03.042Z,21.7
2019-03-29T13:20:02.439Z,20.7
2019-03-29T13:25:02.785Z,21.0
2019-03-29T13:30:03.135Z,19.7
2019-03-29T13:35:02.532Z,20.7
2019-03-29T13:40:02.990Z,20.2
2019-03-29T13:45:02.409Z,19.7
2019-03-29T13:50:02.744Z,19.5
2019-03-29T13:55:03.433Z,21.6
2019-03-29T14:00:02.821Z,21.2
2019-03-29T14:05:03.255Z,20.3
2019-03-29T14:10:02.660Z,21.6
2019-03-29T14:15:03.054Z,21.2
2019-03-29T14:20:02.437Z,20.6
2019-03-29T14:25:02.931Z,19.7
2019-03-29T14:30:05.050Z,21.8
2019-03-29T14:35:02.743Z,21.8
2019-03-29T14:40:03.219Z,22.0
2019-03-29T14:45:02.587Z,20.3
2019-03-29T14:50:02.936Z,20.6
2019-03-29T14:55:03.383Z,22.0
2019-03-29T15:00:02.800Z,22.2
2019-03-29T15:05:03.142Z,21.6
2019-03-29T15:10:02.585Z,22.3
2019-03-29T15:15:06.284Z,20.7
2019-03-29T15:20:03.335Z,20.8
2019-03-29T15:25:02.754Z,20.7
2019-03-29T15:30:03.136Z,20.7
2019-03-29T15:35:02.555Z,20.8
2019-03-29T15:40:02.998Z,23.0
2019-03-29T15:45:02.376Z,20.8
2019-03-29T15:50:02.724Z,20.2
2019-03-29T15:55:03.195Z,21.2
2019-03-29T16:00:02.578Z,21.3
2019-03-29T16:05:03.021Z,20.1
2019-03-29T16:10:02.442Z,19.5
2019-03-29T16:15:02.783Z,19.7
2019-03-29T16:20:03.164Z,20.6
2019-03-29T16:25:02.497Z,19.7
2019-03-29T16:30:02.878Z,19.0
2019-03-29T16:35:03.244Z,17.8
2019-03-29T16:40:02.648Z,17.7
2019-03-29T16:45:03.107Z,17.5
2019-03-29T16:50:02.501Z,17.3
2019-03-29T16:55:13.194Z,17.5
2019-03-29T17:00:03.395Z,17.5
2019-03-29T17:05:02.815Z,17.2
2019-03-29T17:10:03.217Z,17.2
2019-03-29T17:15:02.613Z,17.0
2019-03-29T17:20:02.944Z,16.7
2019-03-29T17:25:03.321Z,16.7
2019-03-29T17:30:02.762Z,16.6
2019-03-29T17:35:03.141Z,16.2
2019-03-29T17:40:02.633Z,15.8
2019-03-29T17:45:02.982Z,15.8
2019-03-29T17:50:02.387Z,15.5
2019-03-29T17:55:02.739Z,15.3
2019-03-29T18:00:03.072Z,15.1
2019-03-29T18:05:02.501Z,14.8
2019-03-29T18:10:02.981Z,14.5
2019-03-29T18:15:02.353Z,14.5
2019-03-29T18:20:02.792Z,14.3
2019-03-29T18:25:03.284Z,14.3
2019-03-29T18:30:02.663Z,13.8
2019-03-29T18:35:03.094Z,13.6
2019-03-29T18:40:02.524Z,13.5
2019-03-29T18:45:02.872Z,13.5
2019-03-29T18:50:03.310Z,13.1
2019-03-29T18:55:02.720Z,13.1
2019-03-29T19:00:03.088Z,13.1
2019-03-29T19:05:02.525Z,12.8
2019-03-29T19:10:03.028Z,12.8
2019-03-29T19:15:02.458Z,12.5
2019-03-29T19:20:02.901Z,12.5
2019-03-29T19:25:03.354Z,12.3
2019-03-29T19:30:01.876Z,12.1
2019-03-29T19:35:03.304Z,12.1
2019-03-29T19:40:02.719Z,12.1
2019-03-29T19:45:03.170Z,12.0
2019-03-29T19:50:02.596Z,11.8
2019-03-29T19:55:03.075Z,11.8
2019-03-29T20:00:05.900Z,12.0
2019-03-29T20:05:02.586Z,12.0
2019-03-29T20:10:03.028Z,11.6
2019-03-29T20:15:02.381Z,11.6
2019-03-29T20:20:02.802Z,11.3
2019-03-29T20:25:03.284Z,11.3
2019-03-29T20:30:02.620Z,11.3
2019-03-29T20:35:02.994Z,11.1
2019-03-29T20:40:02.407Z,11.0
2019-03-29T20:45:02.868Z,10.8
2019-03-29T20:50:03.303Z,10.8
2019-03-29T20:55:02.711Z,10.6
2019-03-29T21:00:03.363Z,10.6
2019-03-29T21:05:02.785Z,10.5
2019-03-29T21:10:03.231Z,10.3
2019-03-29T21:15:02.643Z,10.1
2019-03-29T21:20:03.008Z,10.1
2019-03-29T21:25:02.450Z,10.1
2019-03-29T21:30:02.843Z,10.1
2019-03-29T21:35:03.293Z,10.1
2019-03-29T21:40:02.718Z,10.0
2019-03-29T21:45:03.153Z,10.0
2019-03-29T21:50:02.574Z,9.8
2019-03-29T21:55:03.016Z,9.8
2019-03-29T22:00:02.429Z,9.6
2019-03-29T22:05:02.884Z,9.5
2019-03-29T22:10:03.321Z,9.5
2019-03-29T22:15:02.730Z,9.3
2019-03-29T22:20:03.076Z,9.3
2019-03-29T22:25:02.505Z,9.1
2019-03-29T22:30:02.945Z,9.1
2019-03-29T22:35:03.391Z,9.0
2019-03-29T22:40:02.913Z,8.8
2019-03-29T22:45:03.250Z,8.8
2019-03-29T22:50:02.663Z,8.5
2019-03-29T22:55:03.014Z,8.3
2019-03-29T23:00:02.350Z,8.0
2019-03-29T23:05:02.772Z,8.1
2019-03-29T23:10:03.216Z,8.1
2019-03-29T23:15:02.620Z,8.0
2019-03-29T23:20:02.972Z,8.0
2019-03-29T23:25:02.438Z,8.0
2019-03-29T23:30:02.840Z,7.9
2019-03-29T23:35:03.172Z,7.6
2019-03-29T23:40:02.608Z,7.6
2019-03-29T23:45:03.044Z,7.5
2019-03-29T23:50:02.455Z,7.4
2019-03-29T23:55:02.996Z,7.4
